createdAt,value
2018-07-28T00:02:39.283Z,6.07
2018-07-28T00:05:42.379Z,4.20
2018-07-28T00:08:45.707Z,4.97
2018-07-28T00:11:48.717Z,4.73
2018-07-28T00:14:51.750Z,4.13
2018-07-28T00:17:54.805Z,4.00
2018-07-28T00:20:57.847Z,7.70
2018-07-28T00:24:00.884Z,5.07
2018-07-28T00:27:03.921Z,5.43
2018-07-28T00:30:08.397Z,5.37
2018-07-28T00:33:11.670Z,5.53
2018-07-28T00:36:15.097Z,5.53
2018-07-28T00:39:18.376Z,5.07
2018-07-28T00:42:21.688Z,5.90
2018-07-28T00:45:24.972Z,6.60
2018-07-28T00:48:28.329Z,5.07
2018-07-28T00:51:31.630Z,7.90
2018-07-28T00:54:34.941Z,5.23
2018-07-28T00:57:38.261Z,4.47
2018-07-28T01:00:41.558Z,10.73
2018-07-28T01:03:44.868Z,4.70
2018-07-28T01:06:48.169Z,4.40
2018-07-28T01:09:51.475Z,4.07
2018-07-28T01:12:54.776Z,8.47
2018-07-28T01:15:58.030Z,6.30
2018-07-28T01:19:01.058Z,5.17
2018-07-28T01:22:04.460Z,5.10
2018-07-28T01:25:08.572Z,4.63
2018-07-28T01:28:11.655Z,5.27
2018-07-28T01:31:14.952Z,5.70
2018-07-28T01:34:18.339Z,4.73
2018-07-28T01:37:21.633Z,5.90
2018-07-28T01:40:24.683Z,6.47
2018-07-28T01:43:27.681Z,5.03
2018-07-28T01:46:31.051Z,6.50
2018-07-28T01:49:34.116Z,5.57
2018-07-28T01:52:37.405Z,5.33
2018-07-28T01:55:40.440Z,4.63
2018-07-28T01:58:43.458Z,9.60
2018-07-28T02:01:46.491Z,5.58
2018-07-28T02:04:49.781Z,5.00
2018-07-28T02:07:52.797Z,5.70
2018-07-28T02:10:55.818Z,7.30
2018-07-28T02:13:59.126Z,5.87
2018-07-28T02:17:02.406Z,6.40
2018-07-28T02:20:06.438Z,6.23
2018-07-28T02:23:09.821Z,5.30
2018-07-28T02:26:13.111Z,5.43
2018-07-28T02:29:16.403Z,7.37
2018-07-28T02:32:19.693Z,5.50
2018-07-28T02:35:22.978Z,6.00
2018-07-28T02:38:26.044Z,5.60
2018-07-28T02:41:29.375Z,6.20
2018-07-28T02:44:32.742Z,6.40
2018-07-28T02:47:36.047Z,9.00
2018-07-28T02:50:39.068Z,7.43
2018-07-28T02:53:44.687Z,5.97
2018-07-28T02:56:48.624Z,6.03
2018-07-28T03:05:21.469Z,7.33
2018-07-28T03:08:24.482Z,7.83
2018-07-28T03:11:27.792Z,6.20
2018-07-28T03:14:30.851Z,5.93
2018-07-28T03:17:34.168Z,5.77
2018-07-28T03:20:37.445Z,6.37
2018-07-28T03:23:40.747Z,6.23
2018-07-28T03:26:43.776Z,6.20
2018-07-28T03:29:46.819Z,7.80
2018-07-28T03:32:50.110Z,6.50
2018-07-28T03:35:53.406Z,7.27
2018-07-28T03:38:56.421Z,6.17
2018-07-28T03:41:59.702Z,7.03
2018-07-28T03:45:03.020Z,6.90
2018-07-28T03:48:06.068Z,6.40
2018-07-28T03:51:09.355Z,6.20
2018-07-28T03:54:12.373Z,6.57
2018-07-28T03:57:15.678Z,8.00
2018-07-28T04:00:18.979Z,6.73
2018-07-28T04:03:22.006Z,6.53
2018-07-28T04:06:25.303Z,7.67
2018-07-28T04:09:28.627Z,6.60
2018-07-28T04:12:31.622Z,6.93
2018-07-28T04:15:34.910Z,7.17
2018-07-28T04:18:37.942Z,7.33
2018-07-28T04:21:41.260Z,6.80
2018-07-28T04:24:44.550Z,6.67
2018-07-28T04:27:47.892Z,7.00
2018-07-28T04:30:50.914Z,6.83
2018-07-28T04:33:54.195Z,8.00
2018-07-28T04:36:57.664Z,8.73
2018-07-28T04:40:00.974Z,6.97
2018-07-28T04:43:03.996Z,8.10
2018-07-28T04:46:07.009Z,7.77
2018-07-28T04:49:10.037Z,7.50
2018-07-28T04:52:13.314Z,8.10
2018-07-28T04:55:16.611Z,7.03
2018-07-28T04:58:19.867Z,7.17
2018-07-28T05:01:23.172Z,7.33
2018-07-28T05:04:26.530Z,7.80
2018-07-28T05:07:31.133Z,10.20
2018-07-28T05:10:34.388Z,8.53
2018-07-28T05:13:37.750Z,6.90
2018-07-28T05:16:40.814Z,6.97
2018-07-28T05:19:43.842Z,9.23
2018-07-28T05:22:47.133Z,7.47
2018-07-28T05:25:50.430Z,7.10
2018-07-28T05:28:57.228Z,7.23
2018-07-28T05:32:00.507Z,7.63
2018-07-28T05:35:03.576Z,7.10
2018-07-28T05:38:06.591Z,7.40
2018-07-28T05:41:09.991Z,7.53
2018-07-28T05:44:13.927Z,6.53
2018-07-28T05:47:18.394Z,8.30
2018-07-28T05:50:22.539Z,6.73
2018-07-28T05:53:26.222Z,7.67
2018-07-28T05:56:29.486Z,6.67
2018-07-28T05:59:32.525Z,5.83
2018-07-28T06:02:35.928Z,6.83
2018-07-28T06:05:39.254Z,6.57
2018-07-28T06:08:42.640Z,6.73
2018-07-28T06:11:45.967Z,6.27
2018-07-28T06:14:49.264Z,6.50
2018-07-28T06:17:52.509Z,5.87
2018-07-28T06:20:55.835Z,7.20
2018-07-28T06:23:58.849Z,7.00
2018-07-28T06:27:02.118Z,6.80
2018-07-28T06:30:05.594Z,6.35
2018-07-28T06:33:08.643Z,9.20
2018-07-28T06:36:11.705Z,6.72
2018-07-28T06:39:15.255Z,7.50
2018-07-28T06:42:18.277Z,5.40
2018-07-28T06:45:21.268Z,6.97
2018-07-28T06:48:24.557Z,5.95
2018-07-28T06:51:27.649Z,7.75
2018-07-28T06:54:31.002Z,6.05
2018-07-28T06:57:34.298Z,5.60
2018-07-28T07:00:37.666Z,5.72
2018-07-28T07:03:40.948Z,6.20
2018-07-28T07:06:44.211Z,6.00
2018-07-28T07:09:47.238Z,7.08
2018-07-28T07:12:51.561Z,8.13
2018-07-28T07:15:54.602Z,6.55
2018-07-28T07:18:57.751Z,5.37
2018-07-28T07:22:01.083Z,5.50
2018-07-28T07:25:04.505Z,5.47
2018-07-28T07:28:07.842Z,6.15
2018-07-28T07:31:11.181Z,5.67
2018-07-28T07:34:14.227Z,6.00
2018-07-28T07:37:17.579Z,7.80
2018-07-28T07:40:20.895Z,5.40
2018-07-28T07:43:24.338Z,5.07
2018-07-28T07:46:27.613Z,5.40
2018-07-28T07:49:30.664Z,5.23
2018-07-28T07:52:33.983Z,5.77
2018-07-28T07:55:37.278Z,5.63
2018-07-28T07:58:40.631Z,5.60
2018-07-28T08:01:44.031Z,5.23
2018-07-28T08:04:47.411Z,6.40
2018-07-28T08:07:50.532Z,5.20
2018-07-28T08:10:53.866Z,5.40
2018-07-28T08:13:56.962Z,5.73
2018-07-28T08:17:00.047Z,7.00
2018-07-28T08:20:03.406Z,7.80
2018-07-28T08:23:06.731Z,6.77
2018-07-28T08:26:10.131Z,5.20
2018-07-28T08:29:13.371Z,5.23
2018-07-28T08:32:16.698Z,5.97
2018-07-28T08:35:20.078Z,5.13
2018-07-28T08:38:23.390Z,6.27
2018-07-28T08:41:26.439Z,4.90
2018-07-28T08:44:29.783Z,5.83
2018-07-28T08:47:32.855Z,7.00
2018-07-28T08:50:35.933Z,6.50
2018-07-28T08:53:38.982Z,5.67
2018-07-28T08:56:43.920Z,5.13
2018-07-28T08:59:47.345Z,5.97
2018-07-28T09:02:50.408Z,7.00
2018-07-28T09:05:53.866Z,7.40
2018-07-28T09:08:57.210Z,6.57
2018-07-28T09:12:00.583Z,5.10
2018-07-28T09:15:03.662Z,5.20
2018-07-28T09:18:06.970Z,5.23
2018-07-28T09:21:10.278Z,7.37
2018-07-28T09:24:13.591Z,6.83
2018-07-28T09:27:16.882Z,5.53
2018-07-28T09:30:20.197Z,5.97
2018-07-28T09:33:23.488Z,6.77
2018-07-28T09:36:26.818Z,6.67
2018-07-28T09:39:30.046Z,5.80
2018-07-28T09:42:33.172Z,6.77
2018-07-28T09:45:36.508Z,6.00
2018-07-28T09:48:39.892Z,6.43
2018-07-28T09:51:43.206Z,7.78
2018-07-28T09:54:46.255Z,7.23
2018-07-28T09:57:49.287Z,5.50
2018-07-28T10:00:57.781Z,5.47
2018-07-28T10:04:01.068Z,5.13
2018-07-28T10:07:04.380Z,6.77
2018-07-28T10:10:07.425Z,5.30
2018-07-28T10:13:10.838Z,5.00
2018-07-28T10:16:13.912Z,19.73
2018-07-28T10:19:17.187Z,8.53
2018-07-28T10:22:20.568Z,6.53
2018-07-28T10:25:23.883Z,10.07
2018-07-28T10:28:27.175Z,6.70
2018-07-28T10:31:30.293Z,5.63
2018-07-28T10:34:33.570Z,6.67
2018-07-28T10:37:37.247Z,4.37
2018-07-28T10:40:40.535Z,4.77
2018-07-28T10:43:43.620Z,8.10
2018-07-28T10:46:46.908Z,6.60
2018-07-28T10:49:50.196Z,6.13
2018-07-28T10:52:53.531Z,8.17
2018-07-28T10:55:56.893Z,5.30
2018-07-28T10:58:59.982Z,5.87
2018-07-28T11:02:06.822Z,6.93
2018-07-28T11:05:10.126Z,6.60
2018-07-28T11:08:13.157Z,4.40
2018-07-28T11:11:17.208Z,6.23
2018-07-28T11:14:20.492Z,5.87
2018-07-28T11:17:23.812Z,7.13
2018-07-28T11:20:27.150Z,6.67
2018-07-28T11:23:41.754Z,5.38
2018-07-28T11:26:44.781Z,6.58
2018-07-28T11:29:47.844Z,6.87
2018-07-28T11:33:02.633Z,6.50
2018-07-28T11:36:11.226Z,6.30
2018-07-28T11:39:25.994Z,8.30
2018-07-28T11:43:40.771Z,7.20
2018-07-28T11:46:45.175Z,8.03
2018-07-28T11:49:48.454Z,6.10
2018-07-28T11:52:51.468Z,6.47
2018-07-28T11:55:54.940Z,7.25
2018-07-28T11:58:58.302Z,8.50
2018-07-28T12:02:01.622Z,8.00
2018-07-28T13:01:44.098Z,6.93
2018-07-28T13:04:47.503Z,7.23
2018-07-28T13:07:50.578Z,7.63
2018-07-28T13:10:53.926Z,7.03
2018-07-28T13:13:57.360Z,7.23
2018-07-28T13:17:00.771Z,8.07
2018-07-28T13:20:04.211Z,6.53
2018-07-28T13:23:07.442Z,6.33
2018-07-28T13:26:10.774Z,6.17
2018-07-28T13:29:13.893Z,7.23
2018-07-28T13:32:17.049Z,6.67
2018-07-28T13:35:20.521Z,7.97
2018-07-28T13:38:23.841Z,7.30
2018-07-28T13:41:27.204Z,8.23
2018-07-28T13:44:30.754Z,8.70
2018-07-28T13:47:34.376Z,8.63
2018-07-28T13:50:37.419Z,7.93
2018-07-28T13:53:40.564Z,9.23
2018-07-28T13:56:43.689Z,9.20
2018-07-28T13:59:46.750Z,8.57
2018-07-28T14:02:49.793Z,7.37
2018-07-28T14:05:54.073Z,6.50
2018-07-28T14:08:57.348Z,9.07
2018-07-28T14:12:00.678Z,9.67
2018-07-28T14:15:03.841Z,8.53
2018-07-28T14:18:07.232Z,9.73
2018-07-28T14:21:10.573Z,9.73
2018-07-28T14:24:13.936Z,6.53
2018-07-28T14:27:17.334Z,7.63
2018-07-28T14:30:20.349Z,8.07
2018-07-28T14:33:24.054Z,7.07
2018-07-28T14:36:27.409Z,7.70
2018-07-28T14:39:30.471Z,10.17
2018-07-28T14:42:33.913Z,9.90
2018-07-28T14:45:37.498Z,7.57
2018-07-28T14:48:40.584Z,8.47
2018-07-28T14:51:43.891Z,11.90
2018-07-28T14:54:47.241Z,8.00
2018-07-28T14:57:50.312Z,8.90
2018-07-28T15:00:53.392Z,9.20
2018-07-28T15:03:56.761Z,9.47
2018-07-28T15:06:59.859Z,9.50
2018-07-28T15:10:02.925Z,9.27
2018-07-28T15:20:50.433Z,12.20
2018-07-28T15:23:53.757Z,11.33
2018-07-28T15:26:57.063Z,10.00
2018-07-28T15:30:00.367Z,11.10
2018-07-28T15:33:03.651Z,9.80
2018-07-28T15:36:07.575Z,9.66
2018-07-28T15:39:22.845Z,8.10
2018-07-28T15:42:26.729Z,8.53
2018-07-28T15:45:30.003Z,11.67
2018-07-28T15:48:33.042Z,9.00
2018-07-28T15:51:36.318Z,9.07
2018-07-28T15:54:39.587Z,8.07
2018-07-28T15:57:42.960Z,9.90
2018-07-28T16:00:46.209Z,8.53
2018-07-28T16:03:49.465Z,7.70
2018-07-28T16:06:52.487Z,10.37
2018-07-28T16:09:56.532Z,8.10
2018-07-28T16:12:59.805Z,6.73
2018-07-28T16:16:03.077Z,8.37
2018-07-28T16:19:06.109Z,5.97
2018-07-28T16:22:09.384Z,6.20
2018-07-28T16:25:12.710Z,5.40
2018-07-28T16:28:17.644Z,5.05
2018-07-28T16:31:20.676Z,6.80
2018-07-28T16:34:24.032Z,5.12
2018-07-28T16:37:27.319Z,6.03
2018-07-28T16:40:30.684Z,5.90
2018-07-28T16:43:33.970Z,7.78
2018-07-28T16:46:37.306Z,6.35
2018-07-28T16:49:40.922Z,5.00
2018-07-28T16:52:44.218Z,4.37
2018-07-28T16:55:47.511Z,5.80
2018-07-28T16:58:50.905Z,5.73
2018-07-28T17:01:54.108Z,4.80
2018-07-28T17:04:58.558Z,4.30
2018-07-28T17:08:03.455Z,6.60
2018-07-28T17:11:06.774Z,7.70
2018-07-28T17:14:10.206Z,5.37
2018-07-28T17:17:13.438Z,6.27
2018-07-28T17:20:16.450Z,5.77
2018-07-28T17:23:19.543Z,5.07
2018-07-28T17:26:22.803Z,4.77
2018-07-28T17:29:26.063Z,4.03
2018-07-28T17:32:29.375Z,4.70
2018-07-28T17:35:32.601Z,5.50
2018-07-28T17:38:35.933Z,5.83
2018-07-28T17:41:39.495Z,5.03
2018-07-28T17:44:42.854Z,9.60
2018-07-28T17:47:46.114Z,5.83
2018-07-28T17:50:49.391Z,8.23
2018-07-28T17:53:53.963Z,6.53
2018-07-28T17:56:57.238Z,6.75
2018-07-28T18:00:00.639Z,6.07
2018-07-28T18:03:04.175Z,5.62
2018-07-28T18:06:07.449Z,7.33
2018-07-28T18:09:11.381Z,5.95
2018-07-28T18:12:14.622Z,9.13
2018-07-28T18:15:17.886Z,7.08
2018-07-28T18:18:21.217Z,9.00
2018-07-28T18:21:24.233Z,9.20
2018-07-28T18:24:27.531Z,10.73
2018-07-28T18:27:30.795Z,9.33
2018-07-28T18:30:34.121Z,9.90
2018-07-28T18:33:37.136Z,8.80
2018-07-28T18:36:40.246Z,9.67
2018-07-28T18:39:43.517Z,11.97
2018-07-28T18:42:46.519Z,10.00
2018-07-28T18:45:49.537Z,9.57
2018-07-28T18:48:52.852Z,11.13
2018-07-28T18:51:56.146Z,9.83
2018-07-28T18:54:59.399Z,10.93
2018-07-28T18:58:02.682Z,11.77
2018-07-28T19:01:05.742Z,13.50
2018-07-28T19:04:08.802Z,13.40
2018-07-28T19:07:12.074Z,8.53
2018-07-28T19:10:15.344Z,12.23
2018-07-28T19:13:24.086Z,13.67
2018-07-28T19:16:27.350Z,10.80
2018-07-28T19:19:30.614Z,10.23
2018-07-28T19:22:39.354Z,9.47
2018-07-28T19:25:42.370Z,10.30
2018-07-28T19:28:51.090Z,10.77
2018-07-28T19:31:54.151Z,12.73
2018-07-28T19:34:57.422Z,19.37
2018-07-28T19:38:00.696Z,10.73
2018-07-28T19:41:03.745Z,10.63
2018-07-28T19:44:07.031Z,10.30
2018-07-28T19:47:10.315Z,9.30
2018-07-28T19:50:13.323Z,15.87
2018-07-28T19:53:16.583Z,10.60
2018-07-28T19:56:19.585Z,13.33
2018-07-28T19:59:22.668Z,14.97
2018-07-28T20:02:25.947Z,8.53
2018-07-28T20:05:29.243Z,11.20
2018-07-28T20:08:32.804Z,12.77
2018-07-28T20:11:36.101Z,9.07
2018-07-28T20:14:39.126Z,14.43
2018-07-28T20:17:42.401Z,11.73
2018-07-28T20:20:45.694Z,10.43
2018-07-28T20:23:48.957Z,11.00
2018-07-28T20:26:52.212Z,10.13
2018-07-28T20:39:14.364Z,10.33
2018-07-28T20:42:17.657Z,11.30
2018-07-28T20:45:20.934Z,9.53
2018-07-28T20:48:24.304Z,13.27
2018-07-28T20:51:27.342Z,11.48
2018-07-28T20:54:30.597Z,9.97
2018-07-28T20:57:33.892Z,11.17
2018-07-28T21:00:37.157Z,11.25
2018-07-28T21:03:40.435Z,15.03
2018-07-28T21:06:43.702Z,11.17
2018-07-28T21:09:46.998Z,10.65
2018-07-28T21:12:50.291Z,10.43
2018-07-28T21:15:53.772Z,11.37
2018-07-28T21:18:57.072Z,11.20
2018-07-28T21:22:05.525Z,9.50
2018-07-28T21:25:09.044Z,10.68
2018-07-28T21:28:12.078Z,14.10
2018-07-28T21:31:15.362Z,10.97
2018-07-28T21:34:18.639Z,10.95
2018-07-28T21:37:22.309Z,10.38
2018-07-28T21:40:25.371Z,16.50
2018-07-28T21:43:28.655Z,19.37
2018-07-28T21:46:31.694Z,27.43
2018-07-28T21:49:35.010Z,17.10
2018-07-28T21:52:38.030Z,10.60
2018-07-28T21:55:41.321Z,12.87
2018-07-28T21:58:44.643Z,13.60
2018-07-28T22:01:48.465Z,14.03
2018-07-28T22:04:51.748Z,13.70
2018-07-28T22:07:54.762Z,11.03
2018-07-28T22:10:58.134Z,12.53
2018-07-28T22:14:01.141Z,11.60
2018-07-28T22:17:04.410Z,10.80
2018-07-28T22:20:07.482Z,14.23
2018-07-28T22:23:10.481Z,11.30
2018-07-28T22:26:13.754Z,12.40
2018-07-28T22:29:17.032Z,13.53
2018-07-28T22:32:20.297Z,12.97
2018-07-28T22:35:23.581Z,12.73
2018-07-28T22:38:26.614Z,10.47
2018-07-28T22:41:29.619Z,13.47
2018-07-28T22:44:32.879Z,12.87
2018-07-28T22:47:36.163Z,13.47
2018-07-28T22:50:39.434Z,12.90
2018-07-28T22:53:42.694Z,10.80
2018-07-28T22:56:45.993Z,11.60
2018-07-28T22:59:49.275Z,10.80
2018-07-28T23:02:53.683Z,10.30
2018-07-28T23:05:56.966Z,12.80
2018-07-28T23:09:00.238Z,13.57
2018-07-28T23:12:03.429Z,11.17
2018-07-28T23:15:06.441Z,12.03
2018-07-28T23:18:09.721Z,10.70
2018-07-28T23:21:13.001Z,11.83
2018-07-28T23:24:16.266Z,11.07
2018-07-28T23:27:25.032Z,11.17
2018-07-28T23:30:28.281Z,12.30
2018-07-28T23:33:31.306Z,10.40
2018-07-28T23:36:34.597Z,10.37
2018-07-28T23:39:37.699Z,11.60
2018-07-28T23:42:40.978Z,10.70
2018-07-28T23:45:44.014Z,12.40
2018-07-28T23:48:47.041Z,10.77
2018-07-28T23:51:50.292Z,9.90
2018-07-28T23:54:53.311Z,12.80
2018-07-28T23:57:56.579Z,12.07
